Time;durP1;ratioP1;P1;durP2;ratioP2;P2;SDS_P1;SDS_P2;PMS_P1;PMS_P2;Temp;Humidity;BMP_temperature;BMP_pressure;BME280_temperature;BME280_humidity;BME280_pressure;Samples;Min_cycle;Max_cycle;Signal;HPM_P1;HPM_P2
2023/05/10 00:01:21;;;;;;;;;;;;;;;-147.27;100.00;65176.34;5120623;28;19916;-57
2023/05/10 00:03:46;;;;;;;;;;;;;;;-147.27;100.00;65176.34;5122829;28;19926;-58
2023/05/10 00:06:12;;;;;;;;;;;;;;;-147.27;100.00;65176.34;5126444;28;19941;-56
2023/05/10 00:08:37;;;;;;;;;;;;;;;-147.27;100.00;65176.34;5123300;28;19943;-55
2023/05/10 00:11:03;;;;;;;;;;;;;;;-147.27;100.00;65176.34;5123423;28;19920;-55
2023/05/10 00:13:28;;;;;;;;;;;;;;;-147.27;100.00;65176.34;5123338;28;19920;-57
2023/05/10 00:15:54;;;;;;;;;;;;;;;-147.27;100.00;65176.34;5122734;28;19919;-57
2023/05/10 00:18:19;;;;;;;;;;;;;;;-147.27;100.00;65176.34;5124155;28;19930;-57
2023/05/10 00:20:45;;;;;;;;;;;;;;;-147.27;100.00;65176.34;5123553;28;19981;-58
2023/05/10 00:23:11;;;;;;;;;;;;;;;-147.27;100.00;65176.34;5120188;28;19916;-56
2023/05/10 00:25:37;;;;;;;;;;;;;;;-147.27;100.00;65176.34;5123599;28;19991;-54
2023/05/10 00:28:02;;;;;;;;;;;;;;;-147.27;100.00;65176.34;5116715;28;19924;-56
2023/05/10 00:30:28;;;;;;;;;;;;;;;-147.27;100.00;65176.34;5114928;28;19916;-58
2023/05/10 00:32:54;;;;;;;;;;;;;;;-147.27;100.00;65176.34;5119513;28;19945;-56
2023/05/10 00:35:19;;;;;;;;;;;;;;;-147.27;100.00;65176.34;5115557;28;19924;-54
2023/05/10 00:37:45;;;;;;;;;;;;;;;-147.27;100.00;65176.34;5123506;28;19916;-54
2023/05/10 00:40:10;;;;;;;;;;;;;;;-147.27;100.00;65176.34;5117963;28;19951;-54
2023/05/10 00:42:36;;;;;;;;;;;;;;;-147.27;100.00;65176.34;5117265;28;19923;-54
2023/05/10 00:45:01;;;;;;;;;;;;;;;-147.27;100.00;65176.34;5118480;28;19916;-56
2023/05/10 00:47:27;;;;;;;;;;;;;;;-147.27;100.00;65176.34;5117077;28;19973;-54
2023/05/10 00:49:53;;;;;;;;;;;;;;;-147.27;100.00;65176.34;5119110;28;19926;-57
2023/05/10 00:52:19;;;;;;;;;;;;;;;-147.27;100.00;65176.34;5114442;28;19920;-57
2023/05/10 00:54:46;;;;;;;;;;;;;;;-147.27;100.00;65176.34;5087513;28;19938;-54
2023/05/10 00:57:11;;;;;;;;;;;;;;;-147.27;100.00;65176.34;5083175;28;19978;-54
2023/05/10 00:59:37;;;;;;;;;;;;;;;-147.27;100.00;65176.34;5104314;28;19959;-52
2023/05/10 01:02:02;;;;;;;;;;;;;;;-147.27;100.00;65176.34;5101558;28;19922;-52
2023/05/10 01:04:28;;;;;;;;;;;;;;;-147.27;100.00;65176.34;5103428;28;19920;-56
2023/05/10 01:06:54;;;;;;;;;;;;;;;-147.27;100.00;65176.34;5103611;28;19931;-56
2023/05/10 01:09:20;;;;;;;;;;;;;;;-147.27;100.00;65176.34;5103932;28;20057;-51
2023/05/10 01:11:46;;;;;;;;;;;;;;;-147.27;100.00;65176.34;5083006;28;19924;-52
2023/05/10 01:14:11;;;;;;;;;;;;;;;-147.27;100.00;65176.34;5104868;28;20395;-55
2023/05/10 01:16:38;;;;;;;;;;;;;;;-147.27;100.00;65176.34;5087367;28;19924;-55
2023/05/10 01:19:12;;;;;;;;;;;;;;;-147.27;100.00;65176.34;5084067;28;19916;-51
2023/05/10 01:21:42;;;;;;;;;;;;;;;-147.27;100.00;65176.34;5100757;28;19917;-57
2023/05/10 01:24:28;;;;;;;;;;;;;;;-147.27;100.00;65176.34;5101292;28;19923;-53
2023/05/10 01:27:01;;;;;;;;;;;;;;;-147.27;100.00;65176.34;5084026;28;19924;-52
2023/05/10 01:29:33;;;;;;;;;;;;;;;-147.27;100.00;65176.34;5102859;28;19924;-55
2023/05/10 01:32:09;;;;;;;;;;;;;;;-147.27;100.00;65176.34;5077868;28;19931;-57
2023/05/10 01:34:40;;;;;;;;;;;;;;;-147.27;100.00;65176.34;5099841;28;19921;-55
2023/05/10 01:37:09;;;;;;;;;;;;;;;-147.27;100.00;65176.34;5081278;28;19984;-56
2023/05/10 01:39:40;;;;;;;;;;;;;;;-147.27;100.00;65176.34;5096280;28;19988;-54
2023/05/10 01:42:06;;;;;;;;;;;;;;;-147.27;100.00;65176.34;5096173;28;19927;-54
2023/05/10 01:44:47;;;;;;;;;;;;;;;-147.27;100.00;65176.34;5096225;28;19951;-58
2023/05/10 01:47:19;;;;;;;;;;;;;;;-147.27;100.00;65176.34;5101314;28;19920;-56
2023/05/10 01:49:49;;;;;;;;;;;;;;;-147.27;100.00;65176.34;5083679;28;19983;-55
2023/05/10 01:52:19;;;;;;;;;;;;;;;-147.27;100.00;65176.34;5082521;28;19920;-53
2023/05/10 01:54:50;;;;;;;;;;;;;;;-147.27;100.00;65176.34;5116821;28;19920;-56
2023/05/10 01:57:16;;;;;;;;;;;;;;;-147.27;100.00;65176.34;5112986;28;19923;-56
2023/05/10 01:59:43;;;;;;;;;;;;;;;-147.27;100.00;65176.34;5117473;28;19983;-56
2023/05/10 02:02:11;;;;;;;;;;;;;;;-147.27;100.00;65176.34;5120707;28;19920;-55
2023/05/10 02:04:38;;;;;;;;;;;;;;;-147.27;100.00;65176.34;5119868;28;19922;-54
2023/05/10 02:07:04;;;;;;;;;;;;;;;-147.27;100.00;65176.34;5122039;28;19927;-55
2023/05/10 02:09:31;;;;;;;;;;;;;;;-147.27;100.00;65176.34;5124504;28;19951;-52
2023/05/10 02:11:58;;;;;;;;;;;;;;;-147.27;100.00;65176.34;5124290;28;19941;-52
2023/05/10 02:14:26;;;;;;;;;;;;;;;-147.27;100.00;65176.34;5124112;28;19999;-55
2023/05/10 02:16:53;;;;;;;;;;;;;;;-147.27;100.00;65176.34;5121707;28;19911;-54
2023/05/10 02:19:19;;;;;;;;;;;;;;;-147.27;100.00;65176.34;5119198;28;20523;-55
2023/05/10 02:21:46;;;;;;;;;;;;;;;-147.27;100.00;65176.34;5121114;28;19916;-55
2023/05/10 02:24:11;;;;;;;;;;;;;;;-147.27;100.00;65176.34;5122156;28;19937;-52
2023/05/10 02:26:37;;;;;;;;;;;;;;;-147.27;100.00;65176.34;5119257;28;19916;-54
2023/05/10 02:29:04;;;;;;;;;;;;;;;-147.27;100.00;65176.34;5124253;28;19947;-55
2023/05/10 02:31:35;;;;;;;;;;;;;;;-147.27;100.00;65176.34;5116161;28;19920;-55
2023/05/10 02:34:02;;;;;;;;;;;;;;;-147.27;100.00;65176.34;5118260;28;19923;-56
2023/05/10 02:36:28;;;;;;;;;;;;;;;-147.27;100.00;65176.34;5118907;28;19930;-55
2023/05/10 02:38:54;;;;;;;;;;;;;;;-147.27;100.00;65176.34;5120461;28;19923;-53
2023/05/10 02:41:24;;;;;;;;;;;;;;;-147.27;100.00;65176.34;5119999;28;19942;-54
2023/05/10 02:43:50;;;;;;;;;;;;;;;-147.27;100.00;65176.34;5122826;28;19923;-54
2023/05/10 02:46:16;;;;;;;;;;;;;;;-147.27;100.00;65176.34;5121589;28;19916;-56
2023/05/10 02:48:41;;;;;;;;;;;;;;;-147.27;100.00;65176.34;5122287;28;19916;-57
2023/05/10 02:51:07;;;;;;;;;;;;;;;-147.27;100.00;65176.34;5150021;27;19916;-56
2023/05/10 02:53:34;;;;;;;;;;;;;;;-147.27;100.00;65176.34;5122295;28;19920;-56
2023/05/10 02:56:01;;;;;;;;;;;;;;;-147.27;100.00;65176.34;5120842;28;19931;-55
2023/05/10 02:58:26;;;;;;;;;;;;;;;-147.27;100.00;65176.34;5121337;28;19955;-57
2023/05/10 03:00:52;;;;;;;;;;;;;;;-147.27;100.00;65176.34;5123080;28;19942;-56
2023/05/10 03:03:19;;;;;;;;;;;;;;;-147.27;100.00;65176.34;5121783;28;19916;-53
2023/05/10 03:05:48;;;;;;;;;;;;;;;-147.27;100.00;65176.34;5129025;28;19916;-56
2023/05/10 03:08:13;;;;;;;;;;;;;;;-147.27;100.00;65176.34;5125597;28;19978;-54
2023/05/10 03:10:45;;;;;;;;;;;;;;;-147.27;100.00;65176.34;5121419;28;19947;-53
2023/05/10 03:13:20;;;;;;;;;;;;;;;-147.27;100.00;65176.34;5124601;28;19923;-54
2023/05/10 03:15:51;;;;;;;;;;;;;;;-147.27;100.00;65176.34;5123883;28;19916;-56
2023/05/10 03:18:27;;;;;;;;;;;;;;;-147.27;100.00;65176.34;5127374;28;19979;-57
2023/05/10 03:20:57;;;;;;;;;;;;;;;-147.27;100.00;65176.34;5123314;28;19920;-53
2023/05/10 03:23:27;;;;;;;;;;;;;;;-147.27;100.00;65176.34;5125554;28;19957;-55
2023/05/10 03:25:52;;;;;;;;;;;;;;;-147.27;100.00;65176.34;5126009;28;19923;-56
2023/05/10 03:28:20;;;;;;;;;;;;;;;-147.27;100.00;65176.34;5122597;28;19923;-57
2023/05/10 03:30:46;;;;;;;;;;;;;;;-147.27;100.00;65176.34;5125195;28;19916;-56
2023/05/10 03:33:13;;;;;;;;;;;;;;;-147.27;100.00;65176.34;5121212;28;19987;-56
2023/05/10 03:35:41;;;;;;;;;;;;;;;-147.27;100.00;65176.34;5122473;28;19923;-54
2023/05/10 03:38:07;;;;;;;;;;;;;;;-147.27;100.00;65176.34;5119894;28;19947;-53
2023/05/10 03:40:32;;;;;;;;;;;;;;;-147.27;100.00;65176.34;5127403;28;19942;-54
2023/05/10 03:42:59;;;;;;;;;;;;;;;-147.27;100.00;65176.34;5123547;28;19916;-53
2023/05/10 03:45:25;;;;;;;;;;;;;;;-147.27;100.00;65176.34;5125622;28;19927;-56
2023/05/10 03:47:50;;;;;;;;;;;;;;;-147.27;100.00;65176.34;5124037;28;19945;-55
2023/05/10 03:50:16;;;;;;;;;;;;;;;-147.27;100.00;65176.34;5125974;28;19923;-55
2023/05/10 03:52:41;;;;;;;;;;;;;;;-147.27;100.00;65176.34;5123728;28;19924;-53
2023/05/10 03:55:07;;;;;;;;;;;;;;;-147.27;100.00;65176.34;5123946;28;19916;-52
2023/05/10 03:57:33;;;;;;;;;;;;;;;-147.27;100.00;65176.34;5123588;28;19924;-51
2023/05/10 03:59:59;;;;;;;;;;;;;;;-147.27;100.00;65176.34;5123366;28;19920;-51
2023/05/10 04:02:24;;;;;;;;;;;;;;;-147.27;100.00;65176.34;5121603;28;19915;-54
2023/05/10 04:04:50;;;;;;;;;;;;;;;-147.27;100.00;65176.34;5115180;28;19961;-54
2023/05/10 04:07:16;;;;;;;;;;;;;;;-147.27;100.00;65176.34;5122472;28;19916;-56
2023/05/10 04:09:42;;;;;;;;;;;;;;;-147.27;100.00;65176.34;5117624;28;19950;-56
2023/05/10 04:12:07;;;;;;;;;;;;;;;-147.27;100.00;65176.34;5117695;28;19916;-52
2023/05/10 04:14:32;;;;;;;;;;;;;;;-147.27;100.00;65176.34;5121250;28;19923;-52
2023/05/10 04:16:58;;;;;;;;;;;;;;;-147.27;100.00;65176.34;5124219;28;19938;-55
2023/05/10 04:19:23;;;;;;;;;;;;;;;-147.27;100.00;65176.34;5115540;28;19920;-53
2023/05/10 04:21:48;;;;;;;;;;;;;;;-147.27;100.00;65176.34;5119007;28;19991;-54
2023/05/10 04:24:14;;;;;;;;;;;;;;;-147.27;100.00;65176.34;5115929;28;20128;-56
2023/05/10 04:26:40;;;;;;;;;;;;;;;-147.27;100.00;65176.34;5119555;28;19920;-55
2023/05/10 04:29:05;;;;;;;;;;;;;;;-147.27;100.00;65176.34;5120061;28;19922;-55
2023/05/10 04:31:31;;;;;;;;;;;;;;;-147.27;100.00;65176.34;5120232;28;19916;-56
2023/05/10 04:33:56;;;;;;;;;;;;;;;-147.27;100.00;65176.34;5115785;28;19912;-55
2023/05/10 04:36:22;;;;;;;;;;;;;;;-147.27;100.00;65176.34;5123421;28;20422;-56
2023/05/10 04:38:47;;;;;;;;;;;;;;;-147.27;100.00;65176.34;5120256;27;19916;-55
2023/05/10 04:41:13;;;;;;;;;;;;;;;-147.27;100.00;65176.34;5119870;28;19946;-56
2023/05/10 04:43:38;;;;;;;;;;;;;;;-147.27;100.00;65176.34;5121148;28;19920;-57
2023/05/10 04:46:05;;;;;;;;;;;;;;;-147.27;100.00;65176.34;5117225;28;19916;-56
2023/05/10 04:48:31;;;;;;;;;;;;;;;-147.27;100.00;65176.34;5104103;28;19969;-55
2023/05/10 04:50:56;;;;;;;;;;;;;;;-147.27;100.00;65176.34;5115738;28;19920;-56
2023/05/10 04:53:22;;;;;;;;;;;;;;;-147.27;100.00;65176.34;5118012;28;19927;-54
2023/05/10 04:55:48;;;;;;;;;;;;;;;-147.27;100.00;65176.34;5125338;27;19916;-55
2023/05/10 04:58:14;;;;;;;;;;;;;;;-147.27;100.00;65176.34;5123261;28;19930;-56
2023/05/10 05:00:39;;;;;;;;;;;;;;;-147.27;100.00;65176.34;5125562;28;19927;-50
2023/05/10 05:03:05;;;;;;;;;;;;;;;-147.27;100.00;65176.34;5125183;28;19916;-53
2023/05/10 05:05:30;;;;;;;;;;;;;;;-147.27;100.00;65176.34;5123757;28;19972;-53
2023/05/10 05:07:56;;;;;;;;;;;;;;;-147.27;100.00;65176.34;5123246;28;19982;-52
2023/05/10 05:10:21;;;;;;;;;;;;;;;-147.27;100.00;65176.34;5126405;28;19973;-58
2023/05/10 05:12:46;;;;;;;;;;;;;;;-147.27;100.00;65176.34;5124127;28;19916;-57
2023/05/10 05:15:12;;;;;;;;;;;;;;;-147.27;100.00;65176.34;5125617;28;19927;-58
2023/05/10 05:17:38;;;;;;;;;;;;;;;-147.27;100.00;65176.34;5125200;28;19978;-56
2023/05/10 05:20:03;;;;;;;;;;;;;;;-147.27;100.00;65176.34;5123939;28;19927;-53
2023/05/10 05:22:29;;;;;;;;;;;;;;;-147.27;100.00;65176.34;5125059;28;19997;-57
2023/05/10 05:24:55;;;;;;;;;;;;;;;-147.27;100.00;65176.34;5122972;28;19916;-56
2023/05/10 05:27:23;;;;;;;;;;;;;;;-147.27;100.00;65176.34;5125226;28;19927;-55
2023/05/10 05:29:49;;;;;;;;;;;;;;;-147.27;100.00;65176.34;5122954;28;19923;-56
2023/05/10 05:32:15;;;;;;;;;;;;;;;-147.27;100.00;65176.34;5123850;28;19920;-56
2023/05/10 05:34:41;;;;;;;;;;;;;;;-147.27;100.00;65176.34;5122507;28;19987;-54
2023/05/10 05:37:07;;;;;;;;;;;;;;;-147.27;100.00;65176.34;5125599;28;19920;-54
2023/05/10 05:39:32;;;;;;;;;;;;;;;-147.27;100.00;65176.34;5117779;28;19939;-55
2023/05/10 05:41:58;;;;;;;;;;;;;;;-147.27;100.00;65176.34;5120275;28;19958;-58
2023/05/10 05:44:23;;;;;;;;;;;;;;;-147.27;100.00;65176.34;5120895;28;19916;-55
2023/05/10 05:46:49;;;;;;;;;;;;;;;-147.27;100.00;65176.34;5119621;28;19916;-53
2023/05/10 05:49:14;;;;;;;;;;;;;;;-147.27;100.00;65176.34;5115888;28;19916;-54
2023/05/10 05:51:40;;;;;;;;;;;;;;;-147.27;100.00;65176.34;5120531;28;19916;-53
2023/05/10 05:54:06;;;;;;;;;;;;;;;-147.27;100.00;65176.34;5106412;28;19928;-56
2023/05/10 05:56:32;;;;;;;;;;;;;;;-147.27;100.00;65176.34;5107591;28;19980;-55
2023/05/10 05:58:57;;;;;;;;;;;;;;;-147.27;100.00;65176.34;5105423;28;19924;-55
2023/05/10 06:01:23;;;;;;;;;;;;;;;-147.27;100.00;65176.34;5105448;28;19943;-56
2023/05/10 06:03:48;;;;;;;;;;;;;;;-147.27;100.00;65176.34;5094823;28;19976;-55
2023/05/10 06:06:14;;;;;;;;;;;;;;;-147.27;100.00;65176.34;5093792;28;19921;-56
2023/05/10 06:08:39;;;;;;;;;;;;;;;-147.27;100.00;65176.34;5102634;28;19920;-57
2023/05/10 06:11:05;;;;;;;;;;;;;;;-147.27;100.00;65176.34;5100931;28;19976;-55
2023/05/10 06:13:32;;;;;;;;;;;;;;;-147.27;100.00;65176.34;5079710;28;19942;-54
2023/05/10 06:15:58;;;;;;;;;;;;;;;-147.27;100.00;65176.34;5102002;28;19916;-56
2023/05/10 06:18:24;;;;;;;;;;;;;;;-147.27;100.00;65176.34;5108562;28;19912;-55
2023/05/10 06:20:49;;;;;;;;;;;;;;;-147.27;100.00;65176.34;5104727;28;19924;-56
2023/05/10 06:23:14;;;;;;;;;;;;;;;-147.27;100.00;65176.34;5104148;28;19968;-57
2023/05/10 06:25:40;;;;;;;;;;;;;;;-147.27;100.00;65176.34;5105937;28;19931;-54
2023/05/10 06:28:05;;;;;;;;;;;;;;;-147.27;100.00;65176.34;5102752;28;19942;-56
2023/05/10 06:30:31;;;;;;;;;;;;;;;-147.27;100.00;65176.34;5102325;28;19927;-55
2023/05/10 06:32:56;;;;;;;;;;;;;;;-147.27;100.00;65176.34;5098080;28;19983;-54
2023/05/10 06:35:22;;;;;;;;;;;;;;;-147.27;100.00;65176.34;5102343;28;19935;-52
2023/05/10 06:37:48;;;;;;;;;;;;;;;-147.27;100.00;65176.34;5102317;28;19939;-57
2023/05/10 06:40:13;;;;;;;;;;;;;;;-147.27;100.00;65176.34;5100549;28;20276;-55
2023/05/10 06:42:39;;;;;;;;;;;;;;;-147.27;100.00;65176.34;5098697;28;19989;-51
2023/05/10 06:45:05;;;;;;;;;;;;;;;-147.27;100.00;65176.34;5100798;28;19946;-54
2023/05/10 06:47:30;;;;;;;;;;;;;;;-147.27;100.00;65176.34;5096984;28;19935;-56
2023/05/10 06:49:55;;;;;;;;;;;;;;;-147.27;100.00;65176.34;5098198;28;19916;-55
2023/05/10 06:52:21;;;;;;;;;;;;;;;-147.27;100.00;65176.34;5099284;28;19920;-52
2023/05/10 06:54:46;;;;;;;;;;;;;;;-147.27;100.00;65176.34;5121746;28;19966;-55
2023/05/10 06:57:12;;;;;;;;;;;;;;;-147.27;100.00;65176.34;5121729;28;20402;-54
2023/05/10 06:59:37;;;;;;;;;;;;;;;-147.27;100.00;65176.34;5117830;28;19927;-54
2023/05/10 07:02:03;;;;;;;;;;;;;;;-147.27;100.00;65176.34;5118407;28;19923;-56
2023/05/10 07:04:28;;;;;;;;;;;;;;;-147.27;100.00;65176.34;5126180;28;19916;-56
2023/05/10 07:06:54;;;;;;;;;;;;;;;-147.27;100.00;65176.34;5122595;28;19975;-58
2023/05/10 07:09:19;;;;;;;;;;;;;;;-147.27;100.00;65176.34;5120760;28;19938;-56
2023/05/10 07:11:45;;;;;;;;;;;;;;;-147.27;100.00;65176.34;5119282;28;19916;-54
2023/05/10 07:14:10;;;;;;;;;;;;;;;-147.27;100.00;65176.34;5119032;28;19950;-56
2023/05/10 07:16:36;;;;;;;;;;;;;;;-147.27;100.00;65176.34;5117374;28;19916;-55
2023/05/10 07:19:02;;;;;;;;;;;;;;;-147.27;100.00;65176.34;5123342;28;19987;-56
2023/05/10 07:21:28;;;;;;;;;;;;;;;-147.27;100.00;65176.34;5116003;28;19927;-55
2023/05/10 07:23:54;;;;;;;;;;;;;;;-147.27;100.00;65176.34;5118697;28;19916;-54
2023/05/10 07:26:20;;;;;;;;;;;;;;;-147.27;100.00;65176.34;5118748;28;19931;-54
2023/05/10 07:28:46;;;;;;;;;;;;;;;-147.27;100.00;65176.34;5118109;28;19916;-57
2023/05/10 07:31:12;;;;;;;;;;;;;;;-147.27;100.00;65176.34;5120022;28;19931;-56
2023/05/10 07:33:37;;;;;;;;;;;;;;;-147.27;100.00;65176.34;5123067;28;19959;-56
2023/05/10 07:36:02;;;;;;;;;;;;;;;-147.27;100.00;65176.34;5122167;28;19924;-53
2023/05/10 07:38:28;;;;;;;;;;;;;;;-147.27;100.00;65176.34;5124021;28;20350;-55
2023/05/10 07:40:54;;;;;;;;;;;;;;;-147.27;100.00;65176.34;5120858;28;19992;-56
2023/05/10 07:43:19;;;;;;;;;;;;;;;-147.27;100.00;65176.34;5121371;28;19931;-55
2023/05/10 07:45:45;;;;;;;;;;;;;;;-147.27;100.00;65176.34;5118953;28;19916;-56
2023/05/10 07:48:10;;;;;;;;;;;;;;;-147.27;100.00;65176.34;5124105;28;19915;-52
2023/05/10 07:50:36;;;;;;;;;;;;;;;-147.27;100.00;65176.34;5118073;28;19916;-56
2023/05/10 07:53:02;;;;;;;;;;;;;;;-147.27;100.00;65176.34;5122426;28;19942;-54
2023/05/10 07:55:27;;;;;;;;;;;;;;;-147.27;100.00;65176.34;5121040;28;20002;-53
2023/05/10 07:57:53;;;;;;;;;;;;;;;-147.27;100.00;65176.34;5123004;28;19916;-55
2023/05/10 08:00:19;;;;;;;;;;;;;;;-147.27;100.00;65176.34;5125405;28;19926;-58
2023/05/10 08:02:45;;;;;;;;;;;;;;;-147.27;100.00;65176.34;5118356;28;19916;-56
2023/05/10 08:05:10;;;;;;;;;;;;;;;-147.27;100.00;65176.34;5121328;28;19987;-56
2023/05/10 08:07:36;;;;;;;;;;;;;;;-147.27;100.00;65176.34;5124538;28;19916;-57
2023/05/10 08:10:02;;;;;;;;;;;;;;;-147.27;100.00;65176.34;5116830;28;19995;-54
2023/05/10 08:12:27;;;;;;;;;;;;;;;-147.27;100.00;65176.34;5123742;28;19947;-54
2023/05/10 08:14:53;;;;;;;;;;;;;;;-147.27;100.00;65176.34;5126564;28;19958;-55
2023/05/10 08:17:18;;;;;;;;;;;;;;;-147.27;100.00;65176.34;5121337;28;19992;-53
2023/05/10 08:19:44;;;;;;;;;;;;;;;-147.27;100.00;65176.34;5123144;28;20008;-55
2023/05/10 08:22:10;;;;;;;;;;;;;;;-147.27;100.00;65176.34;5123439;28;19920;-55
2023/05/10 08:24:38;;;;;;;;;;;;;;;-147.27;100.00;65176.34;5126090;28;19947;-57
2023/05/10 08:27:07;;;;;;;;;;;;;;;-147.27;100.00;65176.34;5124220;28;19923;-56
2023/05/10 08:29:32;;;;;;;;;;;;;;;-147.27;100.00;65176.34;5123640;28;19941;-56
2023/05/10 08:31:57;;;;;;;;;;;;;;;-147.27;100.00;65176.34;5123217;28;19916;-56
2023/05/10 08:34:23;;;;;;;;;;;;;;;-147.27;100.00;65176.34;5122241;28;19916;-55
2023/05/10 08:36:48;;;;;;;;;;;;;;;-147.27;100.00;65176.34;5119786;28;19916;-56
2023/05/10 08:39:14;;;;;;;;;;;;;;;-147.27;100.00;65176.34;5119309;28;19920;-54
2023/05/10 08:41:40;;;;;;;;;;;;;;;-147.27;100.00;65176.34;5120532;28;19936;-57
2023/05/10 08:44:07;;;;;;;;;;;;;;;-147.27;100.00;65176.34;5117621;28;19946;-53
2023/05/10 08:46:35;;;;;;;;;;;;;;;-147.27;100.00;65176.34;5118155;28;19923;-54
2023/05/10 08:49:04;;;;;;;;;;;;;;;-147.27;100.00;65176.34;5123601;27;19931;-56
2023/05/10 08:51:34;;;;;;;;;;;;;;;-147.27;100.00;65176.34;5115290;28;19922;-54
2023/05/10 08:54:00;;;;;;;;;;;;;;;-147.27;100.00;65176.34;5122986;28;19931;-55
2023/05/10 08:56:25;;;;;;;;;;;;;;;-147.27;100.00;65176.34;5119456;28;19916;-53
2023/05/10 08:58:51;;;;;;;;;;;;;;;-147.27;100.00;65176.34;5114689;28;19920;-58
2023/05/10 09:01:17;;;;;;;;;;;;;;;-147.27;100.00;65176.34;5114588;28;19927;-56
2023/05/10 09:03:45;;;;;;;;;;;;;;;-147.27;100.00;65176.34;5115482;28;19927;-56
2023/05/10 09:06:12;;;;;;;;;;;;;;;-147.27;100.00;65176.34;5120930;28;19919;-57
2023/05/10 09:08:39;;;;;;;;;;;;;;;-147.27;100.00;65176.34;5115273;28;19922;-57
2023/05/10 09:11:05;;;;;;;;;;;;;;;-147.27;100.00;65176.34;5117008;28;19917;-56
2023/05/10 09:13:31;;;;;;;;;;;;;;;-147.27;100.00;65176.34;5114204;28;19976;-56
2023/05/10 09:15:57;;;;;;;;;;;;;;;-147.27;100.00;65176.34;5115421;28;19920;-56
2023/05/10 09:18:22;;;;;;;;;;;;;;;-147.27;100.00;65176.34;5116972;28;19924;-55
2023/05/10 09:20:48;;;;;;;;;;;;;;;-147.27;100.00;65176.34;5118610;28;19959;-56
2023/05/10 09:23:13;;;;;;;;;;;;;;;-147.27;100.00;65176.34;5116333;28;19930;-54
2023/05/10 09:25:41;;;;;;;;;;;;;;;-147.27;100.00;65176.34;5115634;28;19916;-55
2023/05/10 09:28:08;;;;;;;;;;;;;;;-147.27;100.00;65176.34;5118260;28;19916;-56
2023/05/10 09:30:33;;;;;;;;;;;;;;;-147.27;100.00;65176.34;5116499;28;19979;-53
2023/05/10 09:32:59;;;;;;;;;;;;;;;-147.27;100.00;65176.34;5123377;28;20019;-56
2023/05/10 09:35:26;;;;;;;;;;;;;;;-147.27;100.00;65176.34;5116610;28;19916;-56
2023/05/10 09:37:53;;;;;;;;;;;;;;;-147.27;100.00;65176.34;5119484;28;19916;-53
2023/05/10 09:40:19;;;;;;;;;;;;;;;-147.27;100.00;65176.34;5115237;28;19920;-55
2023/05/10 09:42:53;;;;;;;;;;;;;;;-147.27;100.00;65176.34;5121456;28;19980;-54
2023/05/10 09:45:18;;;;;;;;;;;;;;;-147.27;100.00;65176.34;5122226;28;19916;-54
2023/05/10 09:47:44;;;;;;;;;;;;;;;-147.27;100.00;65176.34;5120252;28;19923;-53
2023/05/10 09:50:09;;;;;;;;;;;;;;;-147.27;100.00;65176.34;5122500;28;19926;-53
2023/05/10 09:52:50;;;;;;;;;;;;;;;-147.27;100.00;65176.34;5119498;28;19991;-53
2023/05/10 09:55:18;;;;;;;;;;;;;;;-147.27;100.00;65176.34;5116753;28;19923;-52
2023/05/10 09:57:43;;;;;;;;;;;;;;;-147.27;100.00;65176.34;5118241;28;19971;-54
2023/05/10 10:00:12;;;;;;;;;;;;;;;-147.27;100.00;65176.34;5116094;28;19920;-55
2023/05/10 10:02:40;;;;;;;;;;;;;;;-147.27;100.00;65176.34;5114024;28;19960;-52
2023/05/10 10:05:06;;;;;;;;;;;;;;;-147.27;100.00;65176.34;5115377;28;19927;-51
2023/05/10 10:07:32;;;;;;;;;;;;;;;-147.27;100.00;65176.34;5113643;28;19955;-59
2023/05/10 10:09:58;;;;;;;;;;;;;;;-147.27;100.00;65176.34;5121622;28;19920;-56
2023/05/10 10:12:24;;;;;;;;;;;;;;;-147.27;100.00;65176.34;5118147;28;19916;-53
2023/05/10 10:14:50;;;;;;;;;;;;;;;-147.27;100.00;65176.34;5116134;28;19917;-54
2023/05/10 10:17:16;;;;;;;;;;;;;;;-147.27;100.00;65176.34;5123628;28;19916;-53
2023/05/10 10:19:41;;;;;;;;;;;;;;;-147.27;100.00;65176.34;5116115;28;19976;-51
2023/05/10 10:22:07;;;;;;;;;;;;;;;-147.27;100.00;65176.34;5115259;28;19971;-54
2023/05/10 10:24:32;;;;;;;;;;;;;;;-147.27;100.00;65176.34;5110822;28;19916;-55
2023/05/10 10:27:04;;;;;;;;;;;;;;;-147.27;100.00;65176.34;5119629;28;19916;-54
2023/05/10 10:29:36;;;;;;;;;;;;;;;-147.27;100.00;65176.34;5115175;28;19912;-52
2023/05/10 10:32:11;;;;;;;;;;;;;;;-147.27;100.00;65176.34;5113774;28;19923;-51
2023/05/10 10:34:38;;;;;;;;;;;;;;;-147.27;100.00;65176.34;5118005;28;20508;-51
2023/05/10 10:37:05;;;;;;;;;;;;;;;-147.27;100.00;65176.34;5117036;28;19916;-53
2023/05/10 10:39:30;;;;;;;;;;;;;;;-147.27;100.00;65176.34;5114555;28;19931;-55
2023/05/10 10:41:56;;;;;;;;;;;;;;;-147.27;100.00;65176.34;5119065;28;19916;-51
2023/05/10 10:44:22;;;;;;;;;;;;;;;-147.27;100.00;65176.34;5115110;27;19916;-55
2023/05/10 10:47:01;;;;;;;;;;;;;;;-147.27;100.00;65176.34;5115602;28;20002;-54
2023/05/10 10:49:26;;;;;;;;;;;;;;;-147.27;100.00;65176.34;5112870;28;19927;-52
2023/05/10 10:52:26;;;;;;;;;;;;;;;-147.27;100.00;65176.34;5120443;28;19940;-49
2023/05/10 10:55:12;;;;;;;;;;;;;;;-147.27;100.00;65176.34;5108749;28;19920;-49
2023/05/10 10:57:41;;;;;;;;;;;;;;;-147.27;100.00;65176.34;5110575;28;19927;-51
2023/05/10 11:00:23;;;;;;;;;;;;;;;-147.27;100.00;65176.34;5116003;28;20020;-50
2023/05/10 11:02:51;;;;;;;;;;;;;;;-147.27;100.00;65176.34;5119734;28;19934;-53
2023/05/10 11:05:23;;;;;;;;;;;;;;;-147.27;100.00;65176.34;5119265;28;19924;-52
2023/05/10 11:07:56;;;;;;;;;;;;;;;-147.27;100.00;65176.34;5119111;28;19916;-55
2023/05/10 11:10:22;;;;;;;;;;;;;;;-147.27;100.00;65176.34;5117035;28;19924;-56
2023/05/10 11:12:53;;;;;;;;;;;;;;;-147.27;100.00;65176.34;5120594;28;19924;-53
2023/05/10 11:15:19;;;;;;;;;;;;;;;-147.27;100.00;65176.34;5117872;28;19923;-51
2023/05/10 11:17:51;;;;;;;;;;;;;;;-147.27;100.00;65176.34;5122101;28;19927;-53
2023/05/10 11:20:22;;;;;;;;;;;;;;;-147.27;100.00;65176.34;5119900;28;19987;-55
2023/05/10 11:22:51;;;;;;;;;;;;;;;-147.27;100.00;65176.34;5116522;28;19942;-56
2023/05/10 11:25:17;;;;;;;;;;;;;;;-147.27;100.00;65176.34;5120663;28;19917;-54
2023/05/10 11:27:42;;;;;;;;;;;;;;;-147.27;100.00;65176.34;5119051;28;19924;-54
2023/05/10 11:30:10;;;;;;;;;;;;;;;-147.27;100.00;65176.34;5118967;28;19916;-55
2023/05/10 11:32:37;;;;;;;;;;;;;;;-147.27;100.00;65176.34;5116392;28;19916;-55
2023/05/10 11:35:09;;;;;;;;;;;;;;;-147.27;100.00;65176.34;5123881;28;19923;-53
2023/05/10 11:37:35;;;;;;;;;;;;;;;-147.27;100.00;65176.34;5123953;28;19923;-56
2023/05/10 11:40:00;;;;;;;;;;;;;;;-147.27;100.00;65176.34;5119036;28;19987;-54
2023/05/10 11:42:27;;;;;;;;;;;;;;;-147.27;100.00;65176.34;5116518;28;19948;-54
2023/05/10 11:44:52;;;;;;;;;;;;;;;-147.27;100.00;65176.34;5121739;28;19923;-55
2023/05/10 11:47:17;;;;;;;;;;;;;;;-147.27;100.00;65176.34;5118899;28;19916;-57
2023/05/10 11:49:43;;;;;;;;;;;;;;;-147.27;100.00;65176.34;5123704;28;19958;-51
2023/05/10 11:52:10;;;;;;;;;;;;;;;-147.27;100.00;65176.34;5119245;28;19923;-56
2023/05/10 11:54:44;;;;;;;;;;;;;;;-147.27;100.00;65176.34;5115486;28;20187;-55
2023/05/10 11:57:09;;;;;;;;;;;;;;;-147.27;100.00;65176.34;5117774;28;19932;-57
2023/05/10 11:59:36;;;;;;;;;;;;;;;-147.27;100.00;65176.34;5119044;28;20002;-54
2023/05/10 12:02:01;;;;;;;;;;;;;;;-147.27;100.00;65176.34;5115769;28;19923;-53
2023/05/10 12:04:29;;;;;;;;;;;;;;;-147.27;100.00;65176.34;5117417;28;19916;-53
2023/05/10 12:06:54;;;;;;;;;;;;;;;-147.27;100.00;65176.34;5121983;28;19965;-50
2023/05/10 12:09:19;;;;;;;;;;;;;;;-147.27;100.00;65176.34;5120000;28;19935;-54
2023/05/10 12:11:45;;;;;;;;;;;;;;;-147.27;100.00;65176.34;5115924;28;19946;-49
2023/05/10 12:14:11;;;;;;;;;;;;;;;-147.27;100.00;65176.34;5115962;28;19955;-53
2023/05/10 12:16:36;;;;;;;;;;;;;;;-147.27;100.00;65176.34;5115754;28;19931;-54